createdAt,value
2019-03-19T00:02:07.524Z,1.39
2019-03-19T00:04:34.783Z,1.31
2019-03-19T00:07:02.116Z,1.53
2019-03-19T00:09:29.448Z,1.33
2019-03-19T00:11:57.910Z,1.15
2019-03-19T00:14:25.403Z,1.71
2019-03-19T00:16:52.763Z,1.21
2019-03-19T00:19:22.461Z,1.07
2019-03-19T00:21:49.384Z,1.32
2019-03-19T00:24:16.671Z,1.25
2019-03-19T00:26:44.023Z,1.31
2019-03-19T00:29:11.343Z,1.30
2019-03-19T00:31:38.684Z,1.26
2019-03-19T00:34:05.984Z,1.04
2019-03-19T00:36:33.305Z,1.13
2019-03-19T00:39:00.663Z,1.03
2019-03-19T00:41:28.003Z,0.95
2019-03-19T00:43:55.343Z,1.01
2019-03-19T00:46:22.631Z,1.27
2019-03-19T00:48:49.948Z,0.98
2019-03-19T00:51:17.247Z,1.43
2019-03-19T00:53:44.583Z,1.03
2019-03-19T00:56:11.874Z,1.42
2019-03-19T00:58:39.151Z,0.99
2019-03-19T01:01:06.473Z,0.94
2019-03-19T01:03:33.778Z,1.08
2019-03-19T01:06:01.091Z,0.95
2019-03-19T01:08:28.426Z,0.72
2019-03-19T01:10:56.164Z,0.74
2019-03-19T01:13:23.547Z,0.87
2019-03-19T01:15:50.857Z,1.13
2019-03-19T01:18:18.131Z,0.91
2019-03-19T01:20:45.464Z,0.83
2019-03-19T01:23:12.771Z,1.12
2019-03-19T01:25:54.439Z,1.34
2019-03-19T01:28:09.373Z,0.97
2019-03-19T01:30:36.716Z,1.15
2019-03-19T01:33:04.064Z,1.25
2019-03-19T01:35:31.384Z,1.05
2019-03-19T01:37:58.723Z,1.11
2019-03-19T01:40:26.036Z,1.23
2019-03-19T01:42:53.319Z,1.43
2019-03-19T01:45:20.665Z,1.26
2019-03-19T01:47:47.968Z,1.34
2019-03-19T01:50:15.389Z,1.34
2019-03-19T01:52:42.678Z,1.69
2019-03-19T01:55:10.009Z,1.90
2019-03-19T01:57:37.294Z,1.74
2019-03-19T02:00:05.361Z,1.32
2019-03-19T02:02:32.718Z,1.40
2019-03-19T02:04:59.990Z,1.36
2019-03-19T02:07:27.372Z,1.28
2019-03-19T02:09:54.703Z,1.44
2019-03-19T02:12:22.024Z,1.42
2019-03-19T02:14:49.296Z,1.63
2019-03-19T02:17:16.659Z,1.62
2019-03-19T02:19:44.066Z,1.72
2019-03-19T02:22:11.360Z,1.71
2019-03-19T02:24:38.643Z,1.62
2019-03-19T02:27:05.983Z,1.38
2019-03-19T02:29:33.283Z,1.51
2019-03-19T02:32:00.565Z,1.73
2019-03-19T02:34:27.919Z,2.04
2019-03-19T02:36:55.224Z,1.94
2019-03-19T02:39:22.564Z,1.89
2019-03-19T02:41:50.344Z,1.92
2019-03-19T02:44:17.689Z,2.03
2019-03-19T02:46:45.164Z,1.60
2019-03-19T02:49:12.445Z,1.40
2019-03-19T02:51:39.784Z,1.62
2019-03-19T02:54:07.063Z,1.89
2019-03-19T02:56:34.404Z,1.46
2019-03-19T02:59:01.698Z,1.66
2019-03-19T03:01:29.038Z,1.54
2019-03-19T03:03:56.352Z,1.71
2019-03-19T03:06:23.633Z,1.07
2019-03-19T03:08:50.945Z,1.23
2019-03-19T03:11:18.232Z,1.07
2019-03-19T03:13:45.558Z,1.16
2019-03-19T03:16:12.860Z,1.21
2019-03-19T03:18:40.166Z,1.23
2019-03-19T03:21:07.455Z,1.25
2019-03-19T03:23:34.734Z,1.33
2019-03-19T03:26:01.978Z,1.03
2019-03-19T03:28:29.295Z,1.08
2019-03-19T03:30:56.642Z,1.15
2019-03-19T03:33:23.945Z,1.35
2019-03-19T03:35:51.201Z,1.24
2019-03-19T03:38:18.473Z,1.51
2019-03-19T03:40:45.762Z,1.46
2019-03-19T03:43:13.073Z,1.65
2019-03-19T03:45:40.410Z,1.12
2019-03-19T03:48:07.682Z,1.15
2019-03-19T03:50:35.000Z,1.61
2019-03-19T03:53:02.318Z,1.23
2019-03-19T03:55:31.259Z,1.80
2019-03-19T03:57:58.736Z,1.62
2019-03-19T04:00:26.014Z,1.15
2019-03-19T04:02:53.393Z,1.05
2019-03-19T04:05:20.719Z,1.22
2019-03-19T04:07:48.051Z,1.31
2019-03-19T04:10:15.403Z,1.16
2019-03-19T04:12:42.659Z,0.93
2019-03-19T04:15:10.629Z,1.23
2019-03-19T04:17:37.881Z,1.31
2019-03-19T04:20:07.036Z,1.72
2019-03-19T04:22:34.320Z,1.46
2019-03-19T04:25:01.723Z,1.00
2019-03-19T04:27:28.956Z,0.98
2019-03-19T04:29:56.249Z,0.98
2019-03-19T04:32:23.554Z,0.91
2019-03-19T04:34:50.856Z,1.32
2019-03-19T04:37:18.160Z,1.51
2019-03-19T04:39:45.436Z,1.49
2019-03-19T04:42:12.754Z,1.26
2019-03-19T04:44:40.034Z,1.20
2019-03-19T04:47:07.422Z,1.31
2019-03-19T04:49:34.705Z,1.20
2019-03-19T04:52:01.933Z,1.15
2019-03-19T04:54:29.251Z,1.06
2019-03-19T04:56:56.531Z,1.11
2019-03-19T04:59:23.839Z,0.93
2019-03-19T05:01:51.091Z,0.92
2019-03-19T05:04:18.370Z,1.38
2019-03-19T05:06:45.656Z,1.59
2019-03-19T05:09:13.019Z,1.60
2019-03-19T05:11:40.289Z,1.44
2019-03-19T05:14:07.593Z,1.13
2019-03-19T05:16:34.936Z,1.24
2019-03-19T05:19:02.231Z,1.05
2019-03-19T05:21:29.571Z,1.22
2019-03-19T05:23:56.880Z,1.20
2019-03-19T05:26:24.167Z,1.27
2019-03-19T05:28:51.461Z,1.09
2019-03-19T05:31:18.731Z,1.19
2019-03-19T05:33:46.055Z,1.47
2019-03-19T05:36:13.384Z,1.47
2019-03-19T05:38:41.252Z,1.02
2019-03-19T05:41:08.511Z,0.76
2019-03-19T05:43:35.871Z,0.87
2019-03-19T05:46:03.179Z,1.12
2019-03-19T05:48:30.519Z,1.65
2019-03-19T05:50:57.832Z,1.30
2019-03-19T05:53:25.101Z,1.24
2019-03-19T05:55:52.480Z,0.90
2019-03-19T05:58:19.771Z,1.18
2019-03-19T06:00:47.058Z,0.98
2019-03-19T06:03:14.423Z,1.28
2019-03-19T06:05:41.707Z,1.00
2019-03-19T06:08:09.075Z,0.99
2019-03-19T06:10:36.396Z,0.99
2019-03-19T06:13:03.871Z,1.38
2019-03-19T06:15:31.143Z,1.88
2019-03-19T06:17:58.493Z,1.68
2019-03-19T06:20:25.776Z,1.51
2019-03-19T06:22:53.103Z,1.80
2019-03-19T06:25:20.433Z,1.89
2019-03-19T06:27:47.703Z,1.87
2019-03-19T06:30:16.126Z,1.35
2019-03-19T06:32:43.443Z,1.15
2019-03-19T06:35:10.786Z,1.24
2019-03-19T06:37:38.102Z,1.02
2019-03-19T06:40:06.385Z,1.10
2019-03-19T06:42:33.658Z,1.34
2019-03-19T06:45:00.971Z,1.86
2019-03-19T06:47:28.396Z,2.04
2019-03-19T06:49:55.702Z,1.80
2019-03-19T06:52:23.023Z,1.92
2019-03-19T06:54:50.325Z,1.55
2019-03-19T06:57:17.664Z,1.52
2019-03-19T06:59:44.963Z,1.60
2019-03-19T07:02:12.293Z,1.75
2019-03-19T07:04:39.589Z,1.79
2019-03-19T07:07:06.903Z,1.87
2019-03-19T07:09:34.284Z,1.61
2019-03-19T07:12:01.825Z,1.97
2019-03-19T07:14:29.352Z,1.79
2019-03-19T07:16:56.664Z,1.87
2019-03-19T07:19:23.974Z,2.02
2019-03-19T07:21:51.264Z,2.07
2019-03-19T07:24:18.599Z,2.03
2019-03-19T07:26:45.895Z,1.85
2019-03-19T07:29:13.216Z,1.74
2019-03-19T07:31:40.523Z,1.84
2019-03-19T07:34:07.771Z,2.10
2019-03-19T07:36:35.083Z,2.32
2019-03-19T07:39:04.054Z,2.21
2019-03-19T07:41:31.355Z,2.41
2019-03-19T07:43:58.643Z,2.15
2019-03-19T07:46:25.983Z,2.30
2019-03-19T07:48:53.307Z,2.41
2019-03-19T07:51:20.640Z,2.30
2019-03-19T07:53:47.959Z,2.21
2019-03-19T07:56:15.273Z,2.18
2019-03-19T07:58:45.481Z,2.23
2019-03-19T08:01:11.788Z,2.31
2019-03-19T08:03:39.103Z,2.62
2019-03-19T08:06:06.387Z,2.19
2019-03-19T08:08:33.679Z,1.85
2019-03-19T08:11:00.998Z,2.53
2019-03-19T08:13:28.323Z,2.56
2019-03-19T08:15:55.623Z,2.72
2019-03-19T08:18:22.976Z,3.04
2019-03-19T08:20:50.351Z,2.86
2019-03-19T08:23:17.655Z,2.50
2019-03-19T08:25:44.997Z,2.51
2019-03-19T08:28:12.365Z,2.56
2019-03-19T08:30:39.705Z,2.64
2019-03-19T08:33:07.078Z,2.84
2019-03-19T08:35:34.513Z,3.08
2019-03-19T08:38:01.845Z,2.88
2019-03-19T08:40:29.182Z,3.08
2019-03-19T08:42:58.281Z,2.99
2019-03-19T08:45:25.935Z,3.26
2019-03-19T08:47:53.380Z,2.85
2019-03-19T08:50:20.803Z,3.16
2019-03-19T08:52:50.488Z,2.96
2019-03-19T08:55:17.819Z,3.32
2019-03-19T08:57:45.096Z,2.96
2019-03-19T09:00:14.844Z,3.19
2019-03-19T09:02:42.103Z,3.27
2019-03-19T09:05:09.906Z,3.61
2019-03-19T09:07:37.215Z,2.93
2019-03-19T09:10:05.414Z,3.78
2019-03-19T09:12:32.747Z,3.62
2019-03-19T09:15:00.171Z,3.45
2019-03-19T09:17:27.564Z,3.26
2019-03-19T09:19:54.903Z,3.37
2019-03-19T09:22:22.921Z,3.17
2019-03-19T09:24:50.555Z,3.31
2019-03-19T09:27:17.878Z,3.58
2019-03-19T09:29:45.117Z,3.98
2019-03-19T09:32:12.423Z,4.18
2019-03-19T09:34:39.744Z,4.53
2019-03-19T09:37:07.078Z,4.67
2019-03-19T09:39:34.415Z,4.10
2019-03-19T09:42:01.746Z,4.29
2019-03-19T09:44:29.050Z,4.23
2019-03-19T09:46:56.383Z,4.70
2019-03-19T09:49:23.710Z,4.87
2019-03-19T09:51:51.083Z,4.73
2019-03-19T09:54:18.425Z,5.04
2019-03-19T09:56:45.753Z,5.40
2019-03-19T09:59:13.123Z,5.36
2019-03-19T10:01:40.480Z,4.84
2019-03-19T10:04:07.864Z,5.30
2019-03-19T10:06:35.158Z,4.98
2019-03-19T10:09:04.461Z,5.24
2019-03-19T10:11:31.779Z,5.38
2019-03-19T10:13:59.103Z,5.40
2019-03-19T10:16:26.447Z,5.62
2019-03-19T10:18:53.845Z,5.76
2019-03-19T10:21:21.663Z,5.56
2019-03-19T10:23:48.995Z,5.55
2019-03-19T10:26:16.290Z,5.84
2019-03-19T10:28:43.687Z,6.19
2019-03-19T10:31:11.042Z,6.46
2019-03-19T10:33:38.403Z,6.51
2019-03-19T10:36:05.703Z,6.36
2019-03-19T10:38:33.031Z,6.01
2019-03-19T10:41:00.337Z,6.10
2019-03-19T10:43:27.643Z,6.18
2019-03-19T10:45:54.996Z,6.25
2019-03-19T10:48:22.297Z,6.09
2019-03-19T10:50:49.624Z,6.28
2019-03-19T10:53:17.013Z,6.82
2019-03-19T10:55:44.423Z,6.54
2019-03-19T10:58:11.696Z,7.11
2019-03-19T11:00:38.984Z,7.54
2019-03-19T11:03:06.858Z,7.82
2019-03-19T11:05:34.183Z,7.60
2019-03-19T11:08:01.524Z,6.71
2019-03-19T11:10:28.890Z,6.83
2019-03-19T11:12:56.184Z,6.76
2019-03-19T11:15:23.489Z,7.10
2019-03-19T11:17:50.824Z,7.09
2019-03-19T11:20:18.168Z,7.09
2019-03-19T11:22:45.566Z,6.90
2019-03-19T11:25:14.266Z,6.92
2019-03-19T11:27:41.655Z,7.24
2019-03-19T11:30:14.908Z,7.30
2019-03-19T11:32:42.230Z,7.12
2019-03-19T11:35:10.665Z,7.41
2019-03-19T11:37:37.965Z,7.18
2019-03-19T11:40:05.532Z,7.40
2019-03-19T11:42:32.975Z,7.48
2019-03-19T11:45:00.298Z,7.31
2019-03-19T11:47:27.649Z,7.63
2019-03-19T11:49:55.142Z,7.58
2019-03-19T11:52:22.510Z,7.93
2019-03-19T11:54:49.923Z,7.96
2019-03-19T11:57:17.262Z,8.03
2019-03-19T11:59:44.623Z,7.73
2019-03-19T12:02:11.944Z,7.17
2019-03-19T12:04:39.224Z,6.94
2019-03-19T12:07:06.624Z,6.78
2019-03-19T12:09:33.996Z,6.74
2019-03-19T12:12:01.344Z,6.71
2019-03-19T12:14:28.675Z,6.68
2019-03-19T12:16:56.009Z,6.61
2019-03-19T12:19:23.373Z,6.38
2019-03-19T12:21:50.743Z,6.13
2019-03-19T12:24:18.084Z,6.09
2019-03-19T12:26:45.371Z,5.68
2019-03-19T12:29:12.791Z,5.71
2019-03-19T12:31:40.110Z,5.67
2019-03-19T12:34:07.433Z,5.65
2019-03-19T12:36:34.732Z,5.85
2019-03-19T12:39:02.212Z,5.67
2019-03-19T12:41:29.559Z,5.14
2019-03-19T12:43:56.858Z,5.48
2019-03-19T12:46:24.184Z,5.29
2019-03-19T12:48:54.210Z,5.03
2019-03-19T12:51:20.825Z,5.00
2019-03-19T12:53:48.231Z,4.83
2019-03-19T12:56:15.534Z,4.97
2019-03-19T12:58:42.821Z,5.33
2019-03-19T13:01:10.413Z,5.09
2019-03-19T13:03:37.718Z,4.98
2019-03-19T13:06:05.084Z,4.80
2019-03-19T13:08:32.396Z,5.00
2019-03-19T13:10:59.724Z,4.87
2019-03-19T13:13:27.016Z,4.78
2019-03-19T13:15:54.304Z,4.88
2019-03-19T13:18:21.646Z,4.81
2019-03-19T13:20:48.926Z,5.16
2019-03-19T13:23:16.279Z,4.97
2019-03-19T13:25:43.600Z,4.85
2019-03-19T13:28:10.968Z,5.11
2019-03-19T13:30:44.925Z,4.51
2019-03-19T13:33:07.503Z,5.00
2019-03-19T13:35:34.830Z,4.89
2019-03-19T13:38:02.139Z,4.77
2019-03-19T13:40:29.450Z,4.68
2019-03-19T13:42:56.803Z,5.12
2019-03-19T13:45:24.105Z,5.14
2019-03-19T13:47:51.542Z,5.07
2019-03-19T13:50:18.858Z,5.17
2019-03-19T13:52:46.268Z,5.29
2019-03-19T13:55:14.463Z,5.20
2019-03-19T13:57:41.844Z,5.52
2019-03-19T14:00:11.084Z,5.31
2019-03-19T14:02:39.021Z,5.36
2019-03-19T14:05:07.207Z,5.56
2019-03-19T14:07:34.553Z,5.37
2019-03-19T14:10:02.063Z,5.68
2019-03-19T14:12:29.871Z,5.68
2019-03-19T14:14:57.233Z,5.78
2019-03-19T14:17:25.055Z,5.61
2019-03-19T14:19:52.401Z,5.77
2019-03-19T14:22:19.793Z,5.54
2019-03-19T14:24:47.168Z,5.79
2019-03-19T14:27:14.586Z,5.85
2019-03-19T14:29:41.998Z,5.93
2019-03-19T14:32:09.405Z,6.05
2019-03-19T14:34:36.744Z,5.84
2019-03-19T14:37:04.121Z,6.22
2019-03-19T14:39:31.440Z,6.14
2019-03-19T14:41:58.828Z,5.80
2019-03-19T14:44:26.203Z,6.13
2019-03-19T14:46:53.499Z,6.00
2019-03-19T14:49:22.167Z,5.98
2019-03-19T14:51:49.523Z,6.12
2019-03-19T14:54:16.864Z,5.88
2019-03-19T14:56:44.595Z,5.99
2019-03-19T14:59:13.492Z,6.01
2019-03-19T15:01:41.316Z,5.86
2019-03-19T15:04:08.517Z,5.90
2019-03-19T15:06:36.132Z,5.97
2019-03-19T15:09:08.560Z,5.78
2019-03-19T15:11:36.125Z,5.78
2019-03-19T15:14:03.649Z,5.74
2019-03-19T15:16:31.604Z,5.73
2019-03-19T15:19:00.273Z,5.76
2019-03-19T15:21:27.953Z,5.35
2019-03-19T15:23:55.705Z,5.28
2019-03-19T15:26:23.359Z,4.99
2019-03-19T15:28:50.947Z,4.82
2019-03-19T15:31:18.665Z,4.63
2019-03-19T15:33:46.335Z,4.46
2019-03-19T15:36:13.960Z,4.40
2019-03-19T15:38:41.605Z,4.40
2019-03-19T15:41:09.060Z,4.31
2019-03-19T15:43:36.593Z,4.36
2019-03-19T15:46:04.251Z,4.20
2019-03-19T15:48:31.688Z,4.01
2019-03-19T15:50:59.270Z,4.04
2019-03-19T15:53:27.747Z,4.21
2019-03-19T15:55:55.304Z,4.11
2019-03-19T15:58:22.845Z,4.19
2019-03-19T16:00:50.340Z,4.04
2019-03-19T16:03:17.835Z,4.14
2019-03-19T16:05:45.536Z,4.09
2019-03-19T16:08:13.246Z,4.01
2019-03-19T16:10:40.651Z,4.01
2019-03-19T16:13:08.160Z,3.97
2019-03-19T16:15:35.703Z,4.00
2019-03-19T16:18:03.266Z,3.63
2019-03-19T16:20:30.799Z,3.68
2019-03-19T16:22:58.431Z,3.82
2019-03-19T16:25:25.966Z,3.92
2019-03-19T16:27:53.567Z,3.88
2019-03-19T16:30:21.384Z,3.78
2019-03-19T16:32:49.262Z,3.81
2019-03-19T16:35:16.938Z,3.91
2019-03-19T16:37:44.599Z,3.84
2019-03-19T16:40:14.872Z,3.74
2019-03-19T16:42:42.618Z,3.76
2019-03-19T16:45:10.251Z,3.53
2019-03-19T16:47:37.902Z,3.65
2019-03-19T16:50:06.091Z,3.57
2019-03-19T16:52:33.688Z,3.56
2019-03-19T16:55:01.308Z,3.61
2019-03-19T16:57:28.991Z,3.58
2019-03-19T16:59:56.604Z,3.76
2019-03-19T17:02:24.257Z,3.68
2019-03-19T17:04:51.928Z,3.69
2019-03-19T17:07:19.428Z,3.60
2019-03-19T17:09:47.052Z,3.52
2019-03-19T17:12:14.700Z,3.57
2019-03-19T17:14:42.460Z,3.48
2019-03-19T17:17:11.691Z,3.62
2019-03-19T17:19:40.334Z,3.45
2019-03-19T17:22:08.006Z,3.52
2019-03-19T17:24:35.650Z,3.57
2019-03-19T17:27:03.892Z,3.54
2019-03-19T17:29:31.685Z,3.49
2019-03-19T17:31:59.325Z,3.52
2019-03-19T17:34:27.496Z,3.55
2019-03-19T17:36:56.430Z,3.48
2019-03-19T17:39:24.097Z,3.43
2019-03-19T17:41:52.220Z,3.44
2019-03-19T17:44:19.881Z,3.35
2019-03-19T17:46:47.520Z,3.44
2019-03-19T17:49:15.189Z,3.43
2019-03-19T17:51:42.900Z,3.52
2019-03-19T17:54:10.938Z,3.49
2019-03-19T17:56:38.666Z,3.48
2019-03-19T17:59:06.320Z,3.52
2019-03-19T18:01:35.985Z,3.56
2019-03-19T18:04:06.643Z,3.48
2019-03-19T18:06:34.279Z,3.60
2019-03-19T18:09:02.004Z,3.40
2019-03-19T18:11:29.923Z,3.46
2019-03-19T18:13:57.810Z,3.43
2019-03-19T18:16:25.471Z,3.53
2019-03-19T18:18:53.062Z,3.30
2019-03-19T18:21:20.708Z,3.32
2019-03-19T18:23:48.361Z,3.16
2019-03-19T18:26:16.102Z,3.26
2019-03-19T18:28:43.936Z,3.11
2019-03-19T18:31:11.588Z,3.09
2019-03-19T18:33:39.374Z,3.11
2019-03-19T18:36:07.023Z,3.10
2019-03-19T18:38:34.708Z,3.10
2019-03-19T18:41:02.478Z,3.27
2019-03-19T18:43:30.309Z,3.06
2019-03-19T18:45:57.949Z,3.17
2019-03-19T18:48:25.599Z,3.10
2019-03-19T18:50:53.498Z,3.07
2019-03-19T18:53:21.322Z,2.97
2019-03-19T18:55:49.485Z,2.96
2019-03-19T18:58:17.199Z,3.05
2019-03-19T19:00:45.213Z,3.08
2019-03-19T19:03:13.786Z,3.12
2019-03-19T19:05:42.812Z,2.99
2019-03-19T19:08:10.892Z,3.04
2019-03-19T19:10:39.122Z,2.99
2019-03-19T19:13:06.785Z,2.97
2019-03-19T19:15:35.112Z,2.92
2019-03-19T19:18:04.706Z,3.19
2019-03-19T19:20:34.533Z,3.04
2019-03-19T19:23:03.053Z,3.07
2019-03-19T19:25:30.979Z,3.09
2019-03-19T19:28:00.176Z,3.03
2019-03-19T19:30:28.542Z,2.96
2019-03-19T19:33:01.948Z,2.97
2019-03-19T19:35:26.267Z,2.76
2019-03-19T19:37:54.419Z,2.89
2019-03-19T19:40:22.332Z,2.81
2019-03-19T19:42:50.141Z,2.94
2019-03-19T19:45:18.175Z,2.88
2019-03-19T19:47:46.039Z,2.69
2019-03-19T19:50:14.356Z,2.44
2019-03-19T19:52:42.428Z,2.56
2019-03-19T19:55:10.685Z,2.68
2019-03-19T19:57:39.150Z,2.41
2019-03-19T20:00:10.758Z,2.69
2019-03-19T20:02:38.662Z,2.88
2019-03-19T20:05:08.267Z,2.63
2019-03-19T20:07:35.974Z,2.60
2019-03-19T20:10:04.958Z,2.67
2019-03-19T20:12:32.839Z,2.72
2019-03-19T20:15:00.978Z,2.70
2019-03-19T20:17:29.395Z,2.38
2019-03-19T20:19:57.425Z,2.63
2019-03-19T20:22:25.131Z,2.57
2019-03-19T20:24:52.771Z,2.62
2019-03-19T20:27:20.431Z,2.22
2019-03-19T20:29:48.146Z,2.41
2019-03-19T20:32:16.315Z,2.35
2019-03-19T20:34:44.370Z,2.25
2019-03-19T20:37:12.240Z,2.21
2019-03-19T20:39:40.122Z,2.15
2019-03-19T20:42:07.887Z,2.27
2019-03-19T20:44:35.631Z,2.14
2019-03-19T20:47:05.130Z,2.37
2019-03-19T20:49:32.875Z,2.33
2019-03-19T20:52:00.679Z,2.41
2019-03-19T20:54:29.879Z,2.11
2019-03-19T20:56:57.636Z,2.15
2019-03-19T20:59:25.307Z,2.18
2019-03-19T21:01:53.304Z,2.13
2019-03-19T21:04:21.060Z,2.22
2019-03-19T21:06:51.263Z,2.31
2019-03-19T21:09:18.946Z,2.33
2019-03-19T21:11:46.639Z,2.16
2019-03-19T21:14:14.332Z,2.43
2019-03-19T21:16:42.139Z,2.63
2019-03-19T21:19:11.121Z,2.27
2019-03-19T21:21:38.765Z,2.07
2019-03-19T21:24:06.623Z,2.07
2019-03-19T21:26:34.386Z,2.07
2019-03-19T21:29:05.012Z,2.09
2019-03-19T21:31:32.823Z,1.96
2019-03-19T21:34:00.622Z,2.03
2019-03-19T21:36:28.334Z,2.02
2019-03-19T21:38:55.990Z,2.24
2019-03-19T21:41:23.618Z,1.88
2019-03-19T21:43:51.199Z,1.88
2019-03-19T21:46:18.861Z,1.79
2019-03-19T21:48:46.346Z,1.82
2019-03-19T21:51:13.894Z,1.78
2019-03-19T21:53:41.505Z,1.71
2019-03-19T21:56:09.262Z,1.74
2019-03-19T21:58:36.690Z,1.77
2019-03-19T22:01:04.351Z,1.56
2019-03-19T22:03:31.797Z,2.03
2019-03-19T22:05:59.243Z,1.46
2019-03-19T22:08:26.719Z,2.03
2019-03-19T22:10:54.122Z,1.42
2019-03-19T22:13:21.499Z,1.34
2019-03-19T22:15:48.898Z,1.64
2019-03-19T22:18:16.228Z,1.24
2019-03-19T22:20:43.559Z,1.81
2019-03-19T22:23:10.857Z,1.60
2019-03-19T22:25:38.242Z,1.89
2019-03-19T22:28:05.573Z,1.56
2019-03-19T22:30:32.992Z,1.23
2019-03-19T22:33:00.331Z,1.71
2019-03-19T22:35:27.708Z,1.15
2019-03-19T22:37:55.386Z,1.03
2019-03-19T22:40:22.727Z,1.09
2019-03-19T22:42:50.077Z,1.06
2019-03-19T22:45:17.413Z,1.07
2019-03-19T22:47:44.705Z,1.16
2019-03-19T22:50:12.832Z,1.28
2019-03-19T22:52:40.226Z,1.24
2019-03-19T22:55:07.726Z,1.19
2019-03-19T22:57:35.111Z,1.17
2019-03-19T23:00:02.703Z,1.43
2019-03-19T23:02:30.073Z,1.21
2019-03-19T23:04:57.384Z,1.45
2019-03-19T23:07:26.986Z,1.27
2019-03-19T23:09:54.309Z,1.52
2019-03-19T23:12:21.655Z,1.35
2019-03-19T23:14:48.953Z,1.52
2019-03-19T23:17:16.284Z,2.07
2019-03-19T23:19:43.610Z,2.01
2019-03-19T23:22:10.960Z,1.66
2019-03-19T23:24:38.331Z,1.69
2019-03-19T23:27:05.757Z,1.51
2019-03-19T23:29:33.103Z,1.64
2019-03-19T23:32:00.427Z,1.75
2019-03-19T23:34:37.918Z,1.60
2019-03-19T23:36:56.971Z,1.34
2019-03-19T23:39:24.304Z,1.45
2019-03-19T23:41:51.683Z,1.75
2019-03-19T23:44:19.042Z,1.52
2019-03-19T23:46:46.391Z,1.53
2019-03-19T23:49:13.791Z,1.77
2019-03-19T23:51:41.124Z,1.63
2019-03-19T23:54:08.428Z,1.60
2019-03-19T23:56:35.802Z,1.64
2019-03-19T23:59:03.165Z,1.66
